Shreveport, LA

10:23 AM CDT on September 01, 2015 (GMT -0500)
Airport | | Change Station
CLOSE
Current Station
Personal Weather Station
Location: Shreveport, LA
Elevation: 276 ft
Nearby Weather Stations

Elev 276 ft 32.46 °N, 93.84 °W | Updated 7 minutes ago

Overcast
Overcast
82.2 °F
Feels Like 87 °F
N
3.2
Wind Variable Wind from SSE

Today
High -- | Low -- °F
--% Chance of Precip.
Yesterday
High -- | Low -- °F
Precip. -- in
6:50 AM 7:40 PM
Waning Gibbous, 88% visible
Pressure 30.08 in
Visibility 10.0 miles
Clouds Mostly Cloudy 15000 ft
Overcast 28000 ft
Heat Index 87 °F
Dew Point 71 °F
Humidity 70%
Rainfall 0.00 in
Snow Depth Not available.
UV 1 out of 12
Pollen 8.70 out of 12
Air Quality Not available.
Flu Activity Not available.
METAR KSHV 011456Z VRB03KT 10SM BKN150 OVC280 27/22 A3009 RMK AO2 SLP184 T02720217 51015
Pressure 30.08 in
Visibility 10.0 miles
Clouds Mostly Cloudy 15000 ft
Overcast 28000 ft
Heat Index 87 °F
Dew Point 71 °F
Humidity 70%
Rainfall 0.00 in
Snow Depth Not available.
UV 1 out of 12
Pollen 8.70 out of 12
Air Quality Not available.
Flu Activity Not available.
METAR KSHV 011456Z VRB03KT 10SM BKN150 OVC280 27/22 A3009 RMK AO2 SLP184 T02720217 51015

10-Day Weather Forecast

×

Almanac

Astronomy

Sep. 01, 2015 Rise Set
Actual Time
Civil Twilight
Nautical Twilight
Astronomical Twilight
Moon
Length of Visible Light
Length of Day
Tomorrow will be .
, % of the Moon is Illuminated

Today's Extremes

State Highs State Lows

Community

WunderPhotos

Upload Photos

1,851,523 photos uploaded!

WunderBlogs® & News

Nearby

Air Quality

  Air Quality AQ Index Pollutant
Not available.

Snow Depth

Station Depth Elevation

Earthquake Activity

City Distance Mag. Time & Date
Minimum magnitude displayed is 2.5.

Coastal Water Temperatures

Place Temperature

Stations

Nearby Weather Stations

Station Location Temp. Windchill Dew Point Humidity Wind Precip. Elev Updated Type